sensor_id;sensor_type;location;lat;lon;timestamp;pressure;altitude;pressure_sealevel;temperature;humidity
34237;BME280;20501;45.956;13.632;2023-06-22T00:01:52;100955.03;;;22.32;71.57
34237;BME280;20501;45.956;13.632;2023-06-22T00:04:17;100957.34;;;22.28;71.67
34237;BME280;20501;45.956;13.632;2023-06-22T00:06:43;100956.94;;;22.24;72.07
34237;BME280;20501;45.956;13.632;2023-06-22T00:09:08;100959.69;;;22.24;71.92
34237;BME280;20501;45.956;13.632;2023-06-22T00:11:35;100959.47;;;22.13;72.49
34237;BME280;20501;45.956;13.632;2023-06-22T00:14:01;100962.41;;;22.11;72.88
34237;BME280;20501;45.956;13.632;2023-06-22T00:16:27;100968.75;;;22.05;73.34
34237;BME280;20501;45.956;13.632;2023-06-22T00:18:52;100969.78;;;21.97;74.20
34237;BME280;20501;45.956;13.632;2023-06-22T00:21:18;100961.56;;;22.10;74.00
34237;BME280;20501;45.956;13.632;2023-06-22T00:23:46;100960.09;;;22.08;73.91
34237;BME280;20501;45.956;13.632;2023-06-22T00:26:13;100955.81;;;22.05;73.82
34237;BME280;20501;45.956;13.632;2023-06-22T00:28:38;100962.16;;;21.99;73.94
34237;BME280;20501;45.956;13.632;2023-06-22T00:31:04;100951.13;;;21.92;74.12
34237;BME280;20501;45.956;13.632;2023-06-22T00:33:29;100951.78;;;21.94;73.82
34237;BME280;20501;45.956;13.632;2023-06-22T00:35:55;100951.16;;;21.99;73.29
34237;BME280;20501;45.956;13.632;2023-06-22T00:38:20;100951.38;;;22.04;72.91
34237;BME280;20501;45.956;13.632;2023-06-22T00:40:46;100947.16;;;22.02;72.79
34237;BME280;20501;45.956;13.632;2023-06-22T00:43:11;100955.41;;;22.02;72.75
34237;BME280;20501;45.956;13.632;2023-06-22T00:45:37;100956.25;;;22.02;72.68
34237;BME280;20501;45.956;13.632;2023-06-22T00:48:03;100955.00;;;22.05;72.44
34237;BME280;20501;45.956;13.632;2023-06-22T00:50:32;100949.69;;;22.03;72.93
34237;BME280;20501;45.956;13.632;2023-06-22T00:53:06;100950.75;;;21.95;74.02
34237;BME280;20501;45.956;13.632;2023-06-22T00:55:35;100951.56;;;21.96;73.50
34237;BME280;20501;45.956;13.632;2023-06-22T00:58:03;100943.75;;;22.00;72.91
34237;BME280;20501;45.956;13.632;2023-06-22T01:00:31;100942.47;;;21.95;73.94
34237;BME280;20501;45.956;13.632;2023-06-22T01:02:57;100944.47;;;21.67;75.65
34237;BME280;20501;45.956;13.632;2023-06-22T01:05:23;100954.22;;;21.76;73.73
34237;BME280;20501;45.956;13.632;2023-06-22T01:07:55;100941.31;;;21.70;74.07
34237;BME280;20501;45.956;13.632;2023-06-22T01:10:32;100943.22;;;21.62;74.06
34237;BME280;20501;45.956;13.632;2023-06-22T01:13:04;100948.28;;;21.65;73.78
34237;BME280;20501;45.956;13.632;2023-06-22T01:15:44;100940.31;;;21.77;73.59
34237;BME280;20501;45.956;13.632;2023-06-22T01:18:12;100928.44;;;21.77;73.25
34237;BME280;20501;45.956;13.632;2023-06-22T01:20:40;100943.72;;;21.86;73.14
34237;BME280;20501;45.956;13.632;2023-06-22T01:23:19;100940.78;;;21.94;73.22
34237;BME280;20501;45.956;13.632;2023-06-22T01:28:54;100926.84;;;22.03;72.94
34237;BME280;20501;45.956;13.632;2023-06-22T01:31:24;100925.13;;;21.95;74.09
34237;BME280;20501;45.956;13.632;2023-06-22T01:33:53;100936.75;;;21.97;73.62
34237;BME280;20501;45.956;13.632;2023-06-22T01:36:21;100936.56;;;21.92;73.91
34237;BME280;20501;45.956;13.632;2023-06-22T01:38:47;100936.25;;;21.73;75.02
34237;BME280;20501;45.956;13.632;2023-06-22T01:41:13;100931.59;;;21.67;75.21
34237;BME280;20501;45.956;13.632;2023-06-22T01:43:40;100939.50;;;21.90;74.10
34237;BME280;20501;45.956;13.632;2023-06-22T01:46:06;100926.16;;;21.94;74.10
34237;BME280;20501;45.956;13.632;2023-06-22T01:48:33;100925.53;;;21.85;73.94
34237;BME280;20501;45.956;13.632;2023-06-22T01:50:59;100918.94;;;21.73;74.57
34237;BME280;20501;45.956;13.632;2023-06-22T01:53:24;100909.66;;;21.87;73.66
34237;BME280;20501;45.956;13.632;2023-06-22T01:55:50;100916.84;;;21.88;73.65
34237;BME280;20501;45.956;13.632;2023-06-22T01:58:16;100913.16;;;21.61;74.29
34237;BME280;20501;45.956;13.632;2023-06-22T02:00:48;100916.94;;;21.60;73.97
34237;BME280;20501;45.956;13.632;2023-06-22T02:03:21;100902.63;;;21.64;73.40
34237;BME280;20501;45.956;13.632;2023-06-22T02:05:50;100897.56;;;21.68;73.31
34237;BME280;20501;45.956;13.632;2023-06-22T02:08:22;100905.81;;;21.68;73.15
34237;BME280;20501;45.956;13.632;2023-06-22T02:10:51;100894.38;;;21.64;73.25
34237;BME280;20501;45.956;13.632;2023-06-22T02:13:18;100896.03;;;21.59;73.71
34237;BME280;20501;45.956;13.632;2023-06-22T02:15:45;100898.78;;;21.59;73.53
34237;BME280;20501;45.956;13.632;2023-06-22T02:18:12;100892.81;;;21.48;74.20
34237;BME280;20501;45.956;13.632;2023-06-22T02:20:38;100901.03;;;21.48;74.82
34237;BME280;20501;45.956;13.632;2023-06-22T02:23:05;100902.53;;;21.51;74.11
34237;BME280;20501;45.956;13.632;2023-06-22T02:25:32;100901.63;;;21.37;76.11
34237;BME280;20501;45.956;13.632;2023-06-22T02:27:57;100905.22;;;21.38;75.55
34237;BME280;20501;45.956;13.632;2023-06-22T02:30:23;100894.63;;;21.34;76.35
34237;BME280;20501;45.956;13.632;2023-06-22T02:32:48;100899.94;;;21.36;76.21
34237;BME280;20501;45.956;13.632;2023-06-22T02:35:14;100895.81;;;21.18;77.38
34237;BME280;20501;45.956;13.632;2023-06-22T02:37:40;100890.13;;;21.20;77.21
34237;BME280;20501;45.956;13.632;2023-06-22T02:40:08;100894.16;;;21.24;76.87
34237;BME280;20501;45.956;13.632;2023-06-22T02:42:37;100899.25;;;21.27;76.50
34237;BME280;20501;45.956;13.632;2023-06-22T02:47:28;100902.34;;;21.17;76.96
34237;BME280;20501;45.956;13.632;2023-06-22T02:49:53;100906.16;;;21.16;76.81
34237;BME280;20501;45.956;13.632;2023-06-22T02:52:19;100898.97;;;21.15;76.52
34237;BME280;20501;45.956;13.632;2023-06-22T02:54:44;100903.44;;;21.23;76.37
34237;BME280;20501;45.956;13.632;2023-06-22T02:57:12;100908.28;;;21.14;76.44
34237;BME280;20501;45.956;13.632;2023-06-22T02:59:42;100909.56;;;21.25;76.28
34237;BME280;20501;45.956;13.632;2023-06-22T03:02:10;100905.91;;;21.11;76.60
34237;BME280;20501;45.956;13.632;2023-06-22T03:04:36;100902.13;;;21.12;76.58
34237;BME280;20501;45.956;13.632;2023-06-22T03:07:02;100908.44;;;21.13;76.93
34237;BME280;20501;45.956;13.632;2023-06-22T03:09:28;100917.78;;;21.18;76.63
34237;BME280;20501;45.956;13.632;2023-06-22T03:11:54;100904.00;;;21.12;77.48
34237;BME280;20501;45.956;13.632;2023-06-22T03:14:19;100901.25;;;21.12;77.54
34237;BME280;20501;45.956;13.632;2023-06-22T03:16:45;100900.81;;;21.08;77.65
34237;BME280;20501;45.956;13.632;2023-06-22T03:19:10;100906.56;;;21.13;76.92
34237;BME280;20501;45.956;13.632;2023-06-22T03:21:37;100904.47;;;21.15;76.65
34237;BME280;20501;45.956;13.632;2023-06-22T03:24:04;100905.75;;;21.19;76.15
34237;BME280;20501;45.956;13.632;2023-06-22T03:26:29;100908.09;;;21.23;75.86
34237;BME280;20501;45.956;13.632;2023-06-22T03:28:55;100909.41;;;21.27;75.44
34237;BME280;20501;45.956;13.632;2023-06-22T03:31:21;100910.41;;;21.19;75.54
34237;BME280;20501;45.956;13.632;2023-06-22T03:33:47;100907.41;;;21.14;75.47
34237;BME280;20501;45.956;13.632;2023-06-22T03:36:14;100910.41;;;21.19;75.70
34237;BME280;20501;45.956;13.632;2023-06-22T03:38:41;100905.31;;;21.16;75.95
34237;BME280;20501;45.956;13.632;2023-06-22T03:41:07;100908.06;;;21.16;76.52
34237;BME280;20501;45.956;13.632;2023-06-22T03:43:32;100899.59;;;21.11;76.88
34237;BME280;20501;45.956;13.632;2023-06-22T03:45:57;100909.09;;;21.15;76.79
34237;BME280;20501;45.956;13.632;2023-06-22T03:48:23;100912.47;;;21.10;76.87
34237;BME280;20501;45.956;13.632;2023-06-22T03:50:48;100915.16;;;21.03;77.21
34237;BME280;20501;45.956;13.632;2023-06-22T03:53:14;100915.56;;;21.00;77.21
34237;BME280;20501;45.956;13.632;2023-06-22T03:55:48;100913.75;;;21.14;76.44
34237;BME280;20501;45.956;13.632;2023-06-22T03:58:14;100912.03;;;21.07;76.34
34237;BME280;20501;45.956;13.632;2023-06-22T04:00:40;100909.72;;;21.10;76.37
34237;BME280;20501;45.956;13.632;2023-06-22T04:03:05;100917.94;;;21.10;76.45
34237;BME280;20501;45.956;13.632;2023-06-22T04:05:32;100916.47;;;21.08;77.51
34237;BME280;20501;45.956;13.632;2023-06-22T04:07:58;100922.56;;;21.03;77.16
34237;BME280;20501;45.956;13.632;2023-06-22T04:10:23;100926.19;;;21.10;77.11
34237;BME280;20501;45.956;13.632;2023-06-22T04:12:48;100923.22;;;21.12;77.30
34237;BME280;20501;45.956;13.632;2023-06-22T04:15:14;100927.28;;;21.16;76.89
34237;BME280;20501;45.956;13.632;2023-06-22T04:17:39;100931.03;;;21.08;77.68
34237;BME280;20501;45.956;13.632;2023-06-22T04:20:05;100927.84;;;21.05;78.12
34237;BME280;20501;45.956;13.632;2023-06-22T04:22:31;100919.81;;;21.03;78.33
34237;BME280;20501;45.956;13.632;2023-06-22T04:24:57;100916.84;;;21.05;78.62
34237;BME280;20501;45.956;13.632;2023-06-22T04:27:22;100916.25;;;21.09;78.40
34237;BME280;20501;45.956;13.632;2023-06-22T04:29:48;100915.00;;;21.12;78.73
34237;BME280;20501;45.956;13.632;2023-06-22T04:32:17;100912.91;;;21.14;78.24
34237;BME280;20501;45.956;13.632;2023-06-22T04:34:42;100910.81;;;21.16;78.47
34237;BME280;20501;45.956;13.632;2023-06-22T04:37:08;100914.16;;;21.11;78.48
34237;BME280;20501;45.956;13.632;2023-06-22T04:39:34;100904.66;;;21.14;77.98
34237;BME280;20501;45.956;13.632;2023-06-22T04:41:59;100918.00;;;21.17;77.95
34237;BME280;20501;45.956;13.632;2023-06-22T04:44:26;100909.16;;;21.22;77.33
34237;BME280;20501;45.956;13.632;2023-06-22T04:46:57;100914.25;;;21.25;77.88
34237;BME280;20501;45.956;13.632;2023-06-22T04:49:26;100912.59;;;21.30;76.95
34237;BME280;20501;45.956;13.632;2023-06-22T04:52:02;100908.97;;;21.30;76.88
34237;BME280;20501;45.956;13.632;2023-06-22T04:54:28;100912.84;;;21.42;76.61
34237;BME280;20501;45.956;13.632;2023-06-22T04:56:54;100908.56;;;21.33;76.77
34237;BME280;20501;45.956;13.632;2023-06-22T04:59:27;100910.69;;;21.38;76.94
34237;BME280;20501;45.956;13.632;2023-06-22T05:01:59;100916.19;;;21.38;76.88
34237;BME280;20501;45.956;13.632;2023-06-22T05:04:26;100907.75;;;21.39;77.19
34237;BME280;20501;45.956;13.632;2023-06-22T05:06:53;100907.34;;;21.42;77.35
34237;BME280;20501;45.956;13.632;2023-06-22T05:09:18;100908.44;;;21.48;76.42
34237;BME280;20501;45.956;13.632;2023-06-22T05:11:47;100915.91;;;21.61;76.48
34237;BME280;20501;45.956;13.632;2023-06-22T05:14:13;100918.47;;;21.62;75.88
34237;BME280;20501;45.956;13.632;2023-06-22T05:16:40;100915.28;;;21.59;76.10
34237;BME280;20501;45.956;13.632;2023-06-22T05:19:06;100917.13;;;21.58;76.36
34237;BME280;20501;45.956;13.632;2023-06-22T05:21:32;100921.66;;;21.66;76.61
34237;BME280;20501;45.956;13.632;2023-06-22T05:23:57;100919.59;;;21.40;76.29
34237;BME280;20501;45.956;13.632;2023-06-22T05:26:29;100909.78;;;21.59;76.02
34237;BME280;20501;45.956;13.632;2023-06-22T05:28:55;100914.84;;;21.62;76.43
34237;BME280;20501;45.956;13.632;2023-06-22T05:31:22;100911.53;;;21.80;76.35
34237;BME280;20501;45.956;13.632;2023-06-22T05:33:48;100913.47;;;21.79;76.58
34237;BME280;20501;45.956;13.632;2023-06-22T05:36:14;100917.03;;;21.80;76.63
34237;BME280;20501;45.956;13.632;2023-06-22T05:38:40;100917.25;;;21.78;76.04
34237;BME280;20501;45.956;13.632;2023-06-22T05:41:06;100914.06;;;21.75;76.07
34237;BME280;20501;45.956;13.632;2023-06-22T05:43:32;100918.63;;;21.54;76.68
34237;BME280;20501;45.956;13.632;2023-06-22T05:46:00;100911.69;;;21.65;78.00
34237;BME280;20501;45.956;13.632;2023-06-22T05:48:26;100904.16;;;21.80;76.80
34237;BME280;20501;45.956;13.632;2023-06-22T05:50:53;100909.47;;;21.89;76.15
34237;BME280;20501;45.956;13.632;2023-06-22T05:53:18;100913.50;;;22.00;77.38
34237;BME280;20501;45.956;13.632;2023-06-22T05:55:44;100898.50;;;22.02;77.05
34237;BME280;20501;45.956;13.632;2023-06-22T05:58:09;100901.44;;;22.01;76.67
34237;BME280;20501;45.956;13.632;2023-06-22T06:00:35;100893.63;;;22.11;76.71
34237;BME280;20501;45.956;13.632;2023-06-22T06:03:01;100891.31;;;22.21;75.23
34237;BME280;20501;45.956;13.632;2023-06-22T06:05:30;100895.53;;;22.31;75.30
34237;BME280;20501;45.956;13.632;2023-06-22T06:07:55;100891.47;;;21.93;76.20
34237;BME280;20501;45.956;13.632;2023-06-22T06:10:21;100888.78;;;22.20;76.01
34237;BME280;20501;45.956;13.632;2023-06-22T06:12:46;100882.44;;;22.33;75.59
34237;BME280;20501;45.956;13.632;2023-06-22T06:15:12;100894.53;;;22.45;75.58
34237;BME280;20501;45.956;13.632;2023-06-22T06:17:46;100883.72;;;22.30;75.56
34237;BME280;20501;45.956;13.632;2023-06-22T06:20:11;100890.25;;;22.22;75.66
34237;BME280;20501;45.956;13.632;2023-06-22T06:22:37;100889.66;;;22.40;75.31
34237;BME280;20501;45.956;13.632;2023-06-22T06:25:02;100894.53;;;22.65;74.44
34237;BME280;20501;45.956;13.632;2023-06-22T06:27:28;100896.25;;;22.66;75.24
34237;BME280;20501;45.956;13.632;2023-06-22T06:29:54;100897.06;;;22.80;75.92
34237;BME280;20501;45.956;13.632;2023-06-22T06:32:19;100890.94;;;22.58;74.52
34237;BME280;20501;45.956;13.632;2023-06-22T06:34:45;100900.66;;;22.74;75.08
34237;BME280;20501;45.956;13.632;2023-06-22T06:37:10;100897.22;;;23.06;74.46
34237;BME280;20501;45.956;13.632;2023-06-22T06:39:36;100900.22;;;22.97;75.09
34237;BME280;20501;45.956;13.632;2023-06-22T06:42:01;100897.66;;;23.02;75.51
34237;BME280;20501;45.956;13.632;2023-06-22T06:44:27;100899.16;;;23.05;75.36
34237;BME280;20501;45.956;13.632;2023-06-22T06:46:53;100902.31;;;23.15;74.81
34237;BME280;20501;45.956;13.632;2023-06-22T06:49:19;100899.97;;;23.26;75.08
34237;BME280;20501;45.956;13.632;2023-06-22T06:51:45;100911.59;;;23.34;74.88
34237;BME280;20501;45.956;13.632;2023-06-22T06:54:10;100905.22;;;23.41;73.79
34237;BME280;20501;45.956;13.632;2023-06-22T06:56:35;100914.97;;;23.43;75.31
34237;BME280;20501;45.956;13.632;2023-06-22T06:59:01;100906.66;;;23.50;74.38
34237;BME280;20501;45.956;13.632;2023-06-22T07:01:27;100914.69;;;23.58;73.75
34237;BME280;20501;45.956;13.632;2023-06-22T07:03:52;100909.00;;;23.53;74.90
34237;BME280;20501;45.956;13.632;2023-06-22T07:06:18;100919.97;;;23.60;72.87
34237;BME280;20501;45.956;13.632;2023-06-22T07:08:44;100910.38;;;22.97;73.66
34237;BME280;20501;45.956;13.632;2023-06-22T07:11:09;100911.97;;;21.84;75.95
34237;BME280;20501;45.956;13.632;2023-06-22T07:13:35;100911.25;;;21.19;79.10
34237;BME280;20501;45.956;13.632;2023-06-22T07:16:00;100915.66;;;21.56;78.60
34237;BME280;20501;45.956;13.632;2023-06-22T07:18:26;100912.41;;;21.94;80.61
34237;BME280;20501;45.956;13.632;2023-06-22T07:20:52;100917.91;;;21.80;78.05
34237;BME280;20501;45.956;13.632;2023-06-22T07:23:20;100921.72;;;21.93;79.63
34237;BME280;20501;45.956;13.632;2023-06-22T07:25:45;100927.31;;;23.07;74.71
34237;BME280;20501;45.956;13.632;2023-06-22T07:28:11;100913.00;;;23.57;72.94
34237;BME280;20501;45.956;13.632;2023-06-22T07:30:36;100910.13;;;23.84;71.81
34237;BME280;20501;45.956;13.632;2023-06-22T07:33:02;100912.25;;;23.82;73.02
34237;BME280;20501;45.956;13.632;2023-06-22T07:35:32;100907.91;;;24.00;71.74
34237;BME280;20501;45.956;13.632;2023-06-22T07:37:58;100908.47;;;23.70;71.51
34237;BME280;20501;45.956;13.632;2023-06-22T07:40:23;100907.84;;;23.68;71.93
34237;BME280;20501;45.956;13.632;2023-06-22T07:42:49;100909.97;;;24.11;72.19
34237;BME280;20501;45.956;13.632;2023-06-22T07:45:17;100912.78;;;24.04;72.64
34237;BME280;20501;45.956;13.632;2023-06-22T07:47:42;100907.66;;;24.40;70.17
34237;BME280;20501;45.956;13.632;2023-06-22T07:50:08;100910.69;;;24.57;70.32
34237;BME280;20501;45.956;13.632;2023-06-22T07:52:34;100907.09;;;24.56;70.59
34237;BME280;20501;45.956;13.632;2023-06-22T07:55:00;100910.03;;;24.62;70.21
34237;BME280;20501;45.956;13.632;2023-06-22T07:57:25;100904.91;;;24.65;69.10
34237;BME280;20501;45.956;13.632;2023-06-22T08:00:00;100906.28;;;24.81;68.36
34237;BME280;20501;45.956;13.632;2023-06-22T08:02:26;100910.72;;;24.82;69.20
34237;BME280;20501;45.956;13.632;2023-06-22T08:04:51;100900.00;;;25.11;66.39
34237;BME280;20501;45.956;13.632;2023-06-22T08:07:17;100900.66;;;24.63;65.84
34237;BME280;20501;45.956;13.632;2023-06-22T08:09:48;100899.25;;;25.23;63.56
34237;BME280;20501;45.956;13.632;2023-06-22T08:12:14;100898.03;;;25.37;63.78
34237;BME280;20501;45.956;13.632;2023-06-22T08:14:42;100901.28;;;24.90;65.86
34237;BME280;20501;45.956;13.632;2023-06-22T08:17:08;100900.16;;;25.16;64.79
34237;BME280;20501;45.956;13.632;2023-06-22T08:19:33;100896.09;;;25.56;62.85
34237;BME280;20501;45.956;13.632;2023-06-22T08:21:59;100906.00;;;25.64;63.23
34237;BME280;20501;45.956;13.632;2023-06-22T08:24:25;100894.94;;;25.64;63.31
34237;BME280;20501;45.956;13.632;2023-06-22T08:26:51;100898.56;;;25.64;63.18
34237;BME280;20501;45.956;13.632;2023-06-22T08:29:17;100901.50;;;25.51;63.94
34237;BME280;20501;45.956;13.632;2023-06-22T08:31:42;100895.53;;;25.29;64.60
34237;BME280;20501;45.956;13.632;2023-06-22T08:34:08;100902.41;;;25.63;63.48
34237;BME280;20501;45.956;13.632;2023-06-22T08:36:33;100894.19;;;25.87;63.73
34237;BME280;20501;45.956;13.632;2023-06-22T08:39:03;100904.06;;;25.83;62.85
34237;BME280;20501;45.956;13.632;2023-06-22T08:41:29;100900.75;;;26.05;62.12
34237;BME280;20501;45.956;13.632;2023-06-22T08:43:54;100898.16;;;25.61;63.26
34237;BME280;20501;45.956;13.632;2023-06-22T08:46:20;100904.22;;;25.70;64.16
34237;BME280;20501;45.956;13.632;2023-06-22T08:48:49;100901.75;;;26.53;61.94
34237;BME280;20501;45.956;13.632;2023-06-22T08:51:15;100903.13;;;26.20;61.88
34237;BME280;20501;45.956;13.632;2023-06-22T08:53:41;100893.53;;;26.46;62.49
34237;BME280;20501;45.956;13.632;2023-06-22T08:56:06;100891.13;;;26.50;61.49
34237;BME280;20501;45.956;13.632;2023-06-22T08:58:31;100896.59;;;26.14;62.56
34237;BME280;20501;45.956;13.632;2023-06-22T09:00:58;100891.03;;;26.56;63.55
34237;BME280;20501;45.956;13.632;2023-06-22T09:03:26;100887.31;;;26.86;62.13
34237;BME280;20501;45.956;13.632;2023-06-22T09:05:51;100890.53;;;26.48;64.27
34237;BME280;20501;45.956;13.632;2023-06-22T09:08:17;100891.09;;;26.26;66.07
34237;BME280;20501;45.956;13.632;2023-06-22T09:10:42;100876.44;;;26.61;63.88
34237;BME280;20501;45.956;13.632;2023-06-22T09:13:07;100887.03;;;26.76;64.39
34237;BME280;20501;45.956;13.632;2023-06-22T09:15:33;100881.63;;;26.57;64.82
34237;BME280;20501;45.956;13.632;2023-06-22T09:17:59;100884.56;;;25.59;65.91
34237;BME280;20501;45.956;13.632;2023-06-22T09:20:24;100885.69;;;26.31;67.00
34237;BME280;20501;45.956;13.632;2023-06-22T09:22:53;100882.31;;;26.41;66.83
34237;BME280;20501;45.956;13.632;2023-06-22T09:25:18;100890.63;;;25.99;67.93
34237;BME280;20501;45.956;13.632;2023-06-22T09:27:46;100889.13;;;26.15;67.85
34237;BME280;20501;45.956;13.632;2023-06-22T09:30:12;100894.81;;;26.32;66.77
34237;BME280;20501;45.956;13.632;2023-06-22T09:32:37;100893.63;;;26.27;67.20
34237;BME280;20501;45.956;13.632;2023-06-22T09:35:04;100888.25;;;26.68;66.59
34237;BME280;20501;45.956;13.632;2023-06-22T09:37:34;100879.19;;;26.37;66.82
34237;BME280;20501;45.956;13.632;2023-06-22T09:40:00;100883.94;;;26.84;66.29
34237;BME280;20501;45.956;13.632;2023-06-22T09:42:25;100882.22;;;27.07;66.13
34237;BME280;20501;45.956;13.632;2023-06-22T09:44:50;100885.06;;;26.29;68.61
34237;BME280;20501;45.956;13.632;2023-06-22T09:47:16;100879.22;;;26.61;67.61
34237;BME280;20501;45.956;13.632;2023-06-22T09:49:41;100883.31;;;26.58;68.61
34237;BME280;20501;45.956;13.632;2023-06-22T09:52:07;100882.81;;;26.38;68.16
34237;BME280;20501;45.956;13.632;2023-06-22T09:54:32;100869.34;;;26.41;66.69
34237;BME280;20501;45.956;13.632;2023-06-22T09:56:58;100864.19;;;26.81;67.09
34237;BME280;20501;45.956;13.632;2023-06-22T09:59:23;100862.81;;;26.24;67.16
34237;BME280;20501;45.956;13.632;2023-06-22T10:01:49;100863.78;;;26.53;66.85
34237;BME280;20501;45.956;13.632;2023-06-22T10:04:14;100854.66;;;26.53;67.91
34237;BME280;20501;45.956;13.632;2023-06-22T10:06:40;100865.50;;;27.02;67.33
34237;BME280;20501;45.956;13.632;2023-06-22T10:09:07;100854.78;;;26.70;68.16
34237;BME280;20501;45.956;13.632;2023-06-22T10:11:33;100860.19;;;26.88;68.13
34237;BME280;20501;45.956;13.632;2023-06-22T10:14:00;100858.72;;;26.26;69.36
34237;BME280;20501;45.956;13.632;2023-06-22T10:16:30;100856.66;;;26.22;67.69
34237;BME280;20501;45.956;13.632;2023-06-22T10:18:56;100856.81;;;27.10;67.12
34237;BME280;20501;45.956;13.632;2023-06-22T10:21:22;100852.69;;;26.30;66.35
34237;BME280;20501;45.956;13.632;2023-06-22T10:23:47;100856.72;;;26.93;66.60
34237;BME280;20501;45.956;13.632;2023-06-22T10:26:12;100858.63;;;26.69;67.36
34237;BME280;20501;45.956;13.632;2023-06-22T10:28:38;100855.84;;;26.57;64.57
34237;BME280;20501;45.956;13.632;2023-06-22T10:31:03;100863.81;;;26.89;65.42
34237;BME280;20501;45.956;13.632;2023-06-22T10:33:29;100862.22;;;27.17;65.41
34237;BME280;20501;45.956;13.632;2023-06-22T10:35:54;100855.56;;;27.71;66.14
34237;BME280;20501;45.956;13.632;2023-06-22T10:38:20;100862.66;;;27.78;63.30
34237;BME280;20501;45.956;13.632;2023-06-22T10:40:46;100864.44;;;27.44;63.88
34237;BME280;20501;45.956;13.632;2023-06-22T10:43:11;100861.38;;;27.86;62.91
34237;BME280;20501;45.956;13.632;2023-06-22T10:45:36;100855.25;;;26.79;67.07
34237;BME280;20501;45.956;13.632;2023-06-22T10:48:02;100857.81;;;26.02;69.53
34237;BME280;20501;45.956;13.632;2023-06-22T10:50:28;100847.75;;;26.67;67.69
34237;BME280;20501;45.956;13.632;2023-06-22T10:52:54;100848.28;;;26.88;65.97
34237;BME280;20501;45.956;13.632;2023-06-22T10:55:20;100843.91;;;27.57;65.14
34237;BME280;20501;45.956;13.632;2023-06-22T10:57:45;100839.59;;;26.72;66.08
34237;BME280;20501;45.956;13.632;2023-06-22T11:00:13;100841.50;;;26.96;68.20
34237;BME280;20501;45.956;13.632;2023-06-22T11:02:39;100833.44;;;26.94;66.87
34237;BME280;20501;45.956;13.632;2023-06-22T11:05:04;100836.66;;;27.85;64.67
34237;BME280;20501;45.956;13.632;2023-06-22T11:07:30;100837.00;;;27.30;64.65
34237;BME280;20501;45.956;13.632;2023-06-22T11:09:56;100823.50;;;27.63;65.77
34237;BME280;20501;45.956;13.632;2023-06-22T11:12:22;100840.47;;;27.67;66.59
34237;BME280;20501;45.956;13.632;2023-06-22T11:14:47;100825.97;;;26.47;67.47
34237;BME280;20501;45.956;13.632;2023-06-22T11:17:12;100834.19;;;27.71;64.07
34237;BME280;20501;45.956;13.632;2023-06-22T11:19:38;100832.47;;;27.41;64.05
34237;BME280;20501;45.956;13.632;2023-06-22T11:22:03;100833.06;;;27.84;64.59
34237;BME280;20501;45.956;13.632;2023-06-22T11:24:29;100823.72;;;27.90;65.07
34237;BME280;20501;45.956;13.632;2023-06-22T11:26:54;100823.84;;;27.67;66.46
34237;BME280;20501;45.956;13.632;2023-06-22T11:29:20;100829.16;;;28.14;62.63
34237;BME280;20501;45.956;13.632;2023-06-22T11:31:45;100817.50;;;27.54;63.76
34237;BME280;20501;45.956;13.632;2023-06-22T11:34:11;100812.53;;;27.85;63.56
34237;BME280;20501;45.956;13.632;2023-06-22T11:36:36;100818.88;;;27.69;64.06
34237;BME280;20501;45.956;13.632;2023-06-22T11:39:02;100816.84;;;27.23;64.78
34237;BME280;20501;45.956;13.632;2023-06-22T11:41:28;100813.00;;;27.65;64.92
34237;BME280;20501;45.956;13.632;2023-06-22T11:43:53;100814.41;;;27.39;65.61
34237;BME280;20501;45.956;13.632;2023-06-22T11:46:18;100812.94;;;27.94;63.38
34237;BME280;20501;45.956;13.632;2023-06-22T11:48:44;100809.91;;;27.78;64.13
34237;BME280;20501;45.956;13.632;2023-06-22T11:51:10;100816.41;;;27.84;64.79
34237;BME280;20501;45.956;13.632;2023-06-22T11:53:36;100807.78;;;26.75;65.81
34237;BME280;20501;45.956;13.632;2023-06-22T11:56:01;100810.84;;;27.55;65.91
34237;BME280;20501;45.956;13.632;2023-06-22T11:58:27;100808.53;;;28.10;62.57
34237;BME280;20501;45.956;13.632;2023-06-22T12:00:54;100802.44;;;27.96;63.87
34237;BME280;20501;45.956;13.632;2023-06-22T12:03:20;100793.94;;;28.03;64.13
34237;BME280;20501;45.956;13.632;2023-06-22T12:05:46;100802.56;;;27.72;65.38
34237;BME280;20501;45.956;13.632;2023-06-22T12:08:12;100796.38;;;27.82;65.13
34237;BME280;20501;45.956;13.632;2023-06-22T12:10:38;100800.72;;;27.78;64.52
34237;BME280;20501;45.956;13.632;2023-06-22T12:13:04;100793.13;;;27.56;64.13
34237;BME280;20501;45.956;13.632;2023-06-22T12:15:29;100799.41;;;27.80;64.55
34237;BME280;20501;45.956;13.632;2023-06-22T12:17:54;100790.25;;;27.97;64.87
34237;BME280;20501;45.956;13.632;2023-06-22T12:20:20;100792.50;;;27.83;64.74
34237;BME280;20501;45.956;13.632;2023-06-22T12:22:45;100789.47;;;28.02;64.82
34237;BME280;20501;45.956;13.632;2023-06-22T12:25:11;100785.47;;;28.09;63.48
34237;BME280;20501;45.956;13.632;2023-06-22T12:27:37;100788.13;;;23.50;70.86
34237;BME280;20501;45.956;13.632;2023-06-22T12:30:04;100783.81;;;26.09;71.66
34237;BME280;20501;45.956;13.632;2023-06-22T12:32:29;100790.53;;;27.67;64.03
34237;BME280;20501;45.956;13.632;2023-06-22T12:34:55;100777.59;;;28.18;62.28
34237;BME280;20501;45.956;13.632;2023-06-22T12:37:22;100783.91;;;27.68;63.65
34237;BME280;20501;45.956;13.632;2023-06-22T12:39:47;100782.25;;;28.01;63.23
34237;BME280;20501;45.956;13.632;2023-06-22T12:42:13;100773.16;;;28.05;64.38